joomla templates top joomla templates template joomla

King Air Abend

Wetterbeurteilung mit Hilfe Webcam und ATIS

 

Webcam 1Webcam 2

(Zum vergrößern auf das Bild klicken)

Wetteranzeige

Aktuelles Platzwetter Stand 16.09.2019 00:54Z

AvgMin / Max
Windrichtung220 Deg220 / 270 Deg
Windgeschwindigkeit2 kt1 / 3 kt
Sichtweite>10000 m
Temperatur14 °C
Taupunkt4 °C
Feuchte51 %
QNH1021.7 hPa
QFE968.0 hPa
WolkenSKC

Aerodrome Terminal Information Service (ATIS) Coburg

METAR
EDQC 160050Z AUTO 25002KT CAVOK 15/04 Q1021=

Wetterverlauf

Notam

C0503/18 - COBURG INFO CHANGED TO 128.680 (8.33 KHZ). 28 FEB 12:22 2018 UNTIL PERM. CREATED:
28 FEB 12:22 2018

D2558/19 - TRAINING AREA (AEROBATIC FLIGHT BOX) ESTABLISHED 2NM RADIUS
CENTERED
ON 501548N 0105942E, AT COBURG-BRANDENSTEINSEBENE FOR GLIDER
AEROBATIC FLIGHTS. (30NM W HOF NDB HOF). GND - FL055, DAILY 0800-SS PLUS30,
02 JUL 00:39 2019 UNTIL 01 OCT 23:59 2019 ESTIMATED. CREATED: 02 JUL 00:40 2019

Windvorhersage

Verkehrslandeplatz Coburg Brandensteinsebene
Tower
Zur Brandensteinsebene
96450 Coburg

 

Telefon +49 (0) 95 61 / 9 20 98
Telefax +49 (0) 95 61 / 9 20 06
EMail tower@vlp-coburg.de